Etusivu
METAR-TAF:

METAR-TAF

Lentoasemat :

Giddings-Lee County Airport

Giddings, Texas, Yhdysvallat

Leveyspiiri: 30-10-09N, Pituuspiiri: 096-58-48W, korkeus merenpinnasta: 148 m

Tämänhetkinen sää

Tämä raportti tehtiin 34 minuuttia sitten, kello 00.55 UTC
Tuuli 3 kn kaakosta
Lämpötila 20°C
Kosteus 94%
Ilmanpaine 1015 hPa
Näkyvyys: 11.3 km
Hajanaisia pilviä 1200 ft:n korkeudessa
Hajonneita pilviä 1900 ft:n korkeudessa
Pilvistä 2600 ft:n korkeudessa
sadetta

METAR: KGYB 080055Z AUTO 14003KT 7SM RA SCT012 BKN019 OVC026 20/19 A2998 RMK AO2 P0001 T01950185

Aika: 19:29 (01:29 UTC)


TAF: puuttuu

Säähavainnot ja -ennusteet yli 4000 lentoasemalta (METAR- ja TAF-raportit).

Käytössä olevat sääasemat on merkitty karttaan keltaisilla ja punaisilla pisteillä.

Aseta hiiri pisteen päälle nähdäksesi sääaseman nimen.

Klikkaa sitten nähdäksesi säähavainnot ja -ennusteet.

Kartan vaihtaminen: klikkaa mustalla rastilla varustettuja vihreitä pisteitä, niin voit zoomata sisään; viivalla varustettua vihreää pistettä, niin voit zoomata ulos tai vihreitä nuolia, niin pääset viereisille kartoille.


METAR-TAF: